createdAt,value
2022-12-01T00:00:09.940Z,10.18
2022-12-01T00:02:36.580Z,9.95
2022-12-01T00:05:03.471Z,11.23
2022-12-01T00:07:30.165Z,11.52
2022-12-01T00:10:15.415Z,12.02
2022-12-01T00:12:43.544Z,13.43
2022-12-01T00:15:13.123Z,11.15
2022-12-01T00:17:39.633Z,12.85
2022-12-01T00:20:07.123Z,12.07
2022-12-01T00:22:33.623Z,11.80
2022-12-01T00:25:00.196Z,12.63
2022-12-01T00:27:26.728Z,12.23
2022-12-01T00:29:53.181Z,9.30
2022-12-01T00:32:19.674Z,11.27
2022-12-01T00:34:46.186Z,12.13
2022-12-01T00:37:12.718Z,12.75
2022-12-01T00:39:39.193Z,11.05
2022-12-01T00:42:10.115Z,11.93
2022-12-01T00:44:39.716Z,10.07
2022-12-01T00:47:06.433Z,10.63
2022-12-01T00:49:32.912Z,11.00
2022-12-01T00:51:59.362Z,10.60
2022-12-01T00:54:25.863Z,10.35
2022-12-01T00:56:52.351Z,10.32
2022-12-01T00:59:18.890Z,12.38
2022-12-01T01:01:45.418Z,10.45
2022-12-01T01:04:12.085Z,11.40
2022-12-01T01:06:38.580Z,10.48
2022-12-01T01:09:05.046Z,12.25
2022-12-01T01:11:31.615Z,11.95
2022-12-01T01:13:59.476Z,9.93
2022-12-01T01:16:26.918Z,14.32
2022-12-01T01:18:53.455Z,11.10
2022-12-01T01:21:22.103Z,10.85
2022-12-01T01:23:49.443Z,10.57
2022-12-01T01:26:28.004Z,12.98
2022-12-01T01:28:57.703Z,12.00
2022-12-01T01:31:26.725Z,10.93
2022-12-01T01:33:54.672Z,12.32
2022-12-01T01:36:21.238Z,12.77
2022-12-01T01:38:51.073Z,11.80
2022-12-01T01:41:18.951Z,11.90
2022-12-01T01:43:46.895Z,14.82
2022-12-01T01:46:17.580Z,12.60
2022-12-01T01:48:49.843Z,13.43
2022-12-01T01:51:20.173Z,11.80
2022-12-01T01:53:47.524Z,12.77
2022-12-01T01:56:14.013Z,11.82
2022-12-01T01:58:41.500Z,11.35
2022-12-01T02:01:08.123Z,11.63
2022-12-01T02:03:37.114Z,13.05
2022-12-01T02:06:05.319Z,10.10
2022-12-01T02:08:35.541Z,10.95
2022-12-01T02:11:10.972Z,12.88
2022-12-01T02:13:37.514Z,13.02
2022-12-01T02:16:14.024Z,11.20
2022-12-01T02:19:10.305Z,10.82
2022-12-01T02:21:58.031Z,12.63
2022-12-01T02:24:39.626Z,13.73
2022-12-01T02:27:20.052Z,13.95
2022-12-01T02:30:07.870Z,10.50
2022-12-01T02:32:53.422Z,10.57
2022-12-01T02:35:35.646Z,12.02
2022-12-01T02:38:19.907Z,13.02
2022-12-01T02:40:50.832Z,13.35
2022-12-01T02:43:26.142Z,13.65
2022-12-01T02:46:02.642Z,14.63
2022-12-01T02:48:38.497Z,13.88
2022-12-01T02:51:19.878Z,12.27
2022-12-01T02:53:46.798Z,11.48
2022-12-01T02:56:16.006Z,10.50
2022-12-01T02:58:43.759Z,12.73
2022-12-01T03:01:33.767Z,13.70
2022-12-01T03:04:09.615Z,13.40
2022-12-01T03:07:02.403Z,14.35
2022-12-01T03:09:46.059Z,12.73
2022-12-01T03:12:15.590Z,15.93
2022-12-01T03:15:08.231Z,13.25
2022-12-01T03:17:47.373Z,11.50
2022-12-01T03:20:25.641Z,13.43
2022-12-01T03:22:59.981Z,10.35
2022-12-01T03:25:29.166Z,13.38
2022-12-01T03:28:20.612Z,16.90
2022-12-01T03:30:46.544Z,13.77
2022-12-01T03:33:20.917Z,14.40
2022-12-01T03:35:50.384Z,16.17
2022-12-01T03:38:27.736Z,18.10
2022-12-01T03:40:59.367Z,15.57
2022-12-01T03:43:31.938Z,13.40
2022-12-01T03:46:15.193Z,13.70
2022-12-01T03:48:42.308Z,15.65
2022-12-01T03:51:35.564Z,14.60
2022-12-01T03:54:26.166Z,12.80
2022-12-01T03:56:59.487Z,12.02
2022-12-01T03:59:27.625Z,12.90
2022-12-01T04:01:54.278Z,12.25
2022-12-01T04:04:20.875Z,14.98
2022-12-01T04:06:50.177Z,13.55
2022-12-01T04:09:17.293Z,12.38
2022-12-01T04:12:02.470Z,14.30
2022-12-01T04:14:30.067Z,13.88
2022-12-01T04:16:56.653Z,16.98
2022-12-01T04:19:23.136Z,13.82
2022-12-01T04:21:49.812Z,16.13
2022-12-01T04:24:16.663Z,13.98
2022-12-01T04:26:43.493Z,14.20
2022-12-01T04:29:12.071Z,14.60
2022-12-01T04:31:38.915Z,12.27
2022-12-01T04:34:05.826Z,12.93
2022-12-01T04:36:34.310Z,11.50
2022-12-01T04:39:01.437Z,13.02
2022-12-01T04:41:28.014Z,10.70
2022-12-01T04:43:55.346Z,9.50
2022-12-01T04:46:23.326Z,11.38
2022-12-01T04:48:49.961Z,11.48
2022-12-01T04:51:16.856Z,10.45
2022-12-01T04:53:43.335Z,11.82
2022-12-01T04:56:09.985Z,12.23
2022-12-01T04:58:40.404Z,11.40
2022-12-01T05:01:10.163Z,9.65
2022-12-01T05:03:41.829Z,11.23
2022-12-01T05:06:11.683Z,12.23
2022-12-01T05:08:38.156Z,12.35
2022-12-01T05:11:07.639Z,12.13
2022-12-01T05:13:36.784Z,14.20
2022-12-01T05:16:12.147Z,12.57
2022-12-01T05:18:38.803Z,11.57
2022-12-01T05:21:07.019Z,13.30
2022-12-01T05:23:35.083Z,14.70
2022-12-01T05:26:02.790Z,13.63
2022-12-01T05:28:29.555Z,11.60
2022-12-01T05:30:56.248Z,11.65
2022-12-01T05:33:23.993Z,12.50
2022-12-01T05:35:50.959Z,10.48
2022-12-01T05:38:18.095Z,12.52
2022-12-01T05:40:51.337Z,12.52
2022-12-01T05:43:19.407Z,8.50
2022-12-01T05:45:50.023Z,10.63
2022-12-01T05:48:17.592Z,12.93
2022-12-01T05:50:44.341Z,13.90
2022-12-01T05:53:14.231Z,10.93
2022-12-01T05:55:40.773Z,11.18
2022-12-01T05:58:07.647Z,13.60
2022-12-01T06:00:35.149Z,13.40
2022-12-01T06:03:02.129Z,13.25
2022-12-01T06:05:28.855Z,15.20
2022-12-01T06:07:55.408Z,13.02
2022-12-01T06:10:22.127Z,13.43
2022-12-01T06:12:48.720Z,11.52
2022-12-01T06:15:15.281Z,13.50
2022-12-01T06:17:41.890Z,16.88
2022-12-01T06:20:09.438Z,10.52
2022-12-01T06:22:35.981Z,13.40
2022-12-01T06:25:02.467Z,12.73
2022-12-01T06:27:28.987Z,14.50
2022-12-01T06:29:55.465Z,14.60
2022-12-01T06:32:21.933Z,17.33
2022-12-01T06:34:48.417Z,11.88
2022-12-01T06:37:15.704Z,12.88
2022-12-01T06:39:42.560Z,15.57
2022-12-01T06:42:09.145Z,16.67
2022-12-01T06:44:35.642Z,16.50
2022-12-01T06:47:02.273Z,13.73
2022-12-01T06:49:28.772Z,15.88
2022-12-01T06:51:55.259Z,16.48
2022-12-01T06:54:21.789Z,16.70
2022-12-01T06:56:48.252Z,17.13
2022-12-01T06:59:15.074Z,15.40
2022-12-01T07:01:41.921Z,11.07
2022-12-01T07:04:08.412Z,15.52
2022-12-01T07:06:34.841Z,13.50
2022-12-01T07:09:01.359Z,14.60
2022-12-01T07:11:27.927Z,14.57
2022-12-01T07:13:55.713Z,15.02
2022-12-01T07:16:22.908Z,17.75
2022-12-01T07:18:49.988Z,15.43
2022-12-01T07:21:17.129Z,17.63
2022-12-01T07:23:43.644Z,10.60
2022-12-01T07:26:13.195Z,12.73
2022-12-01T07:28:39.900Z,16.27
2022-12-01T07:31:09.458Z,14.60
2022-12-01T07:33:36.769Z,15.38
2022-12-01T07:36:04.238Z,14.75
2022-12-01T07:38:32.118Z,13.73
2022-12-01T07:41:04.116Z,15.45
2022-12-01T07:46:04.922Z,11.38
2022-12-01T07:48:32.459Z,14.55
2022-12-01T07:50:58.942Z,13.65
2022-12-01T07:53:25.528Z,14.63
2022-12-01T07:55:52.104Z,14.48
2022-12-01T07:58:18.639Z,12.23
2022-12-01T08:00:45.105Z,13.23
2022-12-01T08:03:11.673Z,13.82
2022-12-01T08:05:38.160Z,15.30
2022-12-01T08:08:04.999Z,9.15
2022-12-01T08:10:31.567Z,12.75
2022-12-01T08:12:58.042Z,13.27
2022-12-01T08:15:24.703Z,11.25
2022-12-01T08:17:51.245Z,12.90
2022-12-01T08:20:22.426Z,17.05
2022-12-01T08:22:50.335Z,16.08
2022-12-01T08:25:16.962Z,19.00
2022-12-01T08:27:43.442Z,13.75
2022-12-01T08:30:10.326Z,14.70
2022-12-01T08:32:36.805Z,17.25
2022-12-01T08:35:03.551Z,15.80
2022-12-01T08:37:30.021Z,12.93
2022-12-01T08:39:56.503Z,14.40
2022-12-01T08:42:22.970Z,15.63
2022-12-01T08:44:49.474Z,14.75
2022-12-01T08:47:18.893Z,16.30
2022-12-01T08:49:45.700Z,13.07
2022-12-01T08:52:12.215Z,14.35
2022-12-01T08:54:38.695Z,13.23
2022-12-01T08:57:05.206Z,18.65
2022-12-01T08:59:31.694Z,17.00
2022-12-01T09:02:00.460Z,9.25
2022-12-01T09:06:57.598Z,13.68
2022-12-01T09:09:27.409Z,14.57
2022-12-01T09:11:54.913Z,17.85
2022-12-01T09:14:22.744Z,13.23
2022-12-01T09:16:50.328Z,15.40
2022-12-01T09:19:24.106Z,14.57
2022-12-01T09:21:51.362Z,11.88
2022-12-01T09:24:18.007Z,16.27
2022-12-01T09:26:44.582Z,13.68
2022-12-01T09:29:13.686Z,17.02
2022-12-01T09:31:41.554Z,15.57
2022-12-01T09:34:12.549Z,14.98
2022-12-01T09:36:39.242Z,13.40
2022-12-01T09:39:07.977Z,14.63
2022-12-01T09:41:39.305Z,14.85
2022-12-01T09:44:13.864Z,16.52
2022-12-01T09:46:46.802Z,13.20
2022-12-01T09:49:24.097Z,18.05
2022-12-01T09:51:53.726Z,13.52
2022-12-01T09:54:20.377Z,15.25
2022-12-01T09:56:50.643Z,15.77
2022-12-01T09:59:23.470Z,17.17
2022-12-01T10:02:00.154Z,17.88
2022-12-01T10:04:41.647Z,16.13
2022-12-01T10:07:29.551Z,14.73
2022-12-01T10:10:01.004Z,14.10
2022-12-01T10:12:34.155Z,15.45
2022-12-01T10:15:12.737Z,11.38
2022-12-01T10:18:12.690Z,16.75
2022-12-01T10:21:00.824Z,16.42
2022-12-01T10:23:39.556Z,13.05
2022-12-01T10:26:20.521Z,17.25
2022-12-01T10:29:19.552Z,15.27
2022-12-01T10:31:49.117Z,15.55
2022-12-01T10:34:39.206Z,15.80
2022-12-01T10:37:12.566Z,13.88
2022-12-01T10:39:43.174Z,13.27
2022-12-01T10:42:14.879Z,16.67
2022-12-01T10:44:42.515Z,11.93
2022-12-01T10:47:21.733Z,14.48
2022-12-01T10:49:48.978Z,13.07
2022-12-01T10:52:41.395Z,9.15
2022-12-01T10:55:27.871Z,12.07
2022-12-01T10:57:57.793Z,11.80
2022-12-01T11:03:25.907Z,13.57
2022-12-01T11:05:55.497Z,15.18
2022-12-01T11:08:24.368Z,11.80
2022-12-01T11:10:52.120Z,15.43
2022-12-01T11:13:28.415Z,11.40
2022-12-01T11:16:00.019Z,14.82
2022-12-01T11:18:34.530Z,11.98
2022-12-01T11:21:26.304Z,12.15
2022-12-01T11:23:55.504Z,14.00
2022-12-01T11:26:27.128Z,9.95
2022-12-01T11:29:02.729Z,11.90
2022-12-01T11:31:56.047Z,12.48
2022-12-01T11:34:24.587Z,10.27
2022-12-01T11:36:54.705Z,10.88
2022-12-01T11:39:32.342Z,13.32
2022-12-01T11:42:04.963Z,11.25
2022-12-01T11:47:26.454Z,10.45
2022-12-01T11:49:58.919Z,13.63
2022-12-01T11:52:45.062Z,13.60
2022-12-01T11:55:11.522Z,12.25
2022-12-01T11:57:44.309Z,11.65
2022-12-01T12:00:14.151Z,12.95
2022-12-01T12:02:59.666Z,12.43
2022-12-01T12:05:42.181Z,11.93
2022-12-01T12:08:39.372Z,13.88
2022-12-01T12:11:31.308Z,13.95
2022-12-01T12:14:19.881Z,18.52
2022-12-01T12:17:01.544Z,15.43
2022-12-01T12:20:07.050Z,12.20
2022-12-01T12:23:04.849Z,13.27
2022-12-01T12:25:34.358Z,13.23
2022-12-01T12:28:22.748Z,16.00
2022-12-01T12:31:02.590Z,14.02
2022-12-01T12:33:34.834Z,14.05
2022-12-01T12:36:16.546Z,16.05
2022-12-01T12:38:58.339Z,16.83
2022-12-01T12:41:46.515Z,12.05
2022-12-01T12:44:37.362Z,15.30
2022-12-01T12:47:19.249Z,14.68
2022-12-01T12:50:06.413Z,14.48
2022-12-01T12:52:37.199Z,14.77
2022-12-01T12:55:15.500Z,15.95
2022-12-01T12:57:53.961Z,13.70
2022-12-01T13:00:26.172Z,11.40
2022-12-01T13:03:14.543Z,14.63
2022-12-01T13:05:50.054Z,11.45
2022-12-01T13:08:21.912Z,17.90
2022-12-01T13:11:10.235Z,16.40
2022-12-01T13:14:04.592Z,17.20
2022-12-01T13:16:36.836Z,15.93
2022-12-01T13:19:23.599Z,15.02
2022-12-01T13:21:52.539Z,17.52
2022-12-01T13:24:23.991Z,15.13
2022-12-01T13:27:06.082Z,23.25
2022-12-01T13:29:43.651Z,16.65
2022-12-01T13:32:25.428Z,17.13
2022-12-01T13:34:51.968Z,11.38
2022-12-01T13:37:27.010Z,13.75
2022-12-01T13:39:55.371Z,19.52
2022-12-01T13:42:25.155Z,17.92
2022-12-01T13:44:53.110Z,19.15
2022-12-01T13:47:19.538Z,19.55
2022-12-01T13:49:50.597Z,17.77
2022-12-01T13:52:25.699Z,16.50
2022-12-01T13:55:27.237Z,19.35
2022-12-01T13:57:56.715Z,21.20
2022-12-01T14:00:27.291Z,19.85
2022-12-01T14:03:12.425Z,24.15
2022-12-01T14:05:42.109Z,19.83
2022-12-01T14:08:29.059Z,23.73
2022-12-01T14:11:02.861Z,21.67
2022-12-01T14:13:31.324Z,21.20
2022-12-01T14:16:03.462Z,19.88
2022-12-01T14:18:39.838Z,20.92
2022-12-01T14:21:09.494Z,21.40
2022-12-01T14:23:59.592Z,19.48
2022-12-01T14:26:28.992Z,19.45
2022-12-01T14:28:55.568Z,19.17
2022-12-01T14:31:23.250Z,15.77
2022-12-01T14:33:58.887Z,22.85
2022-12-01T14:36:48.449Z,19.55
2022-12-01T14:39:22.149Z,15.23
2022-12-01T14:42:00.702Z,24.60
2022-12-01T14:44:33.137Z,20.48
2022-12-01T14:47:17.906Z,20.67
2022-12-01T14:49:50.145Z,18.60
2022-12-01T14:52:28.822Z,22.92
2022-12-01T14:55:02.806Z,21.10
2022-12-01T14:57:34.408Z,16.88
2022-12-01T15:00:14.481Z,18.80
2022-12-01T15:02:57.790Z,23.05
2022-12-01T15:05:27.327Z,21.55
2022-12-01T15:08:18.757Z,24.92
2022-12-01T15:10:53.015Z,26.50
2022-12-01T15:13:33.804Z,21.85
2022-12-01T15:16:03.387Z,21.67
2022-12-01T15:18:39.223Z,20.38
2022-12-01T15:21:19.665Z,20.42
2022-12-01T15:24:38.539Z,18.98
2022-12-01T15:27:24.747Z,25.35
2022-12-01T15:29:52.359Z,25.88
2022-12-01T15:32:21.596Z,16.50
2022-12-01T15:34:51.708Z,21.27
2022-12-01T15:37:21.815Z,23.35
2022-12-01T15:40:35.709Z,21.17
2022-12-01T15:42:45.346Z,23.73
2022-12-01T15:45:14.776Z,21.70
2022-12-01T15:47:42.923Z,25.83
2022-12-01T15:50:42.647Z,24.80
2022-12-01T15:53:21.625Z,19.95
2022-12-01T15:55:55.534Z,22.73
2022-12-01T15:58:30.090Z,28.73
2022-12-01T16:01:01.761Z,20.15
2022-12-01T16:03:29.443Z,23.25
2022-12-01T16:05:57.231Z,22.05
2022-12-01T16:08:27.162Z,19.48
2022-12-01T16:11:17.768Z,24.15
2022-12-01T16:13:48.051Z,22.75
2022-12-01T16:16:44.959Z,17.70
2022-12-01T16:19:11.503Z,13.07
2022-12-01T16:21:55.685Z,23.77
2022-12-01T16:24:23.716Z,18.98
2022-12-01T16:26:54.502Z,21.55
2022-12-01T16:29:23.613Z,18.38
2022-12-01T16:32:19.185Z,17.67
2022-12-01T16:34:57.347Z,18.65
2022-12-01T16:37:24.137Z,21.52
2022-12-01T16:39:50.811Z,26.15
2022-12-01T16:42:20.960Z,22.85
2022-12-01T16:44:49.061Z,22.92
2022-12-01T16:47:21.793Z,19.95
2022-12-01T16:49:49.228Z,18.77
2022-12-01T16:52:43.252Z,20.75
2022-12-01T16:55:03.140Z,21.33
2022-12-01T16:57:29.615Z,21.63
2022-12-01T16:59:56.102Z,22.30
2022-12-01T17:02:22.718Z,18.95
2022-12-01T17:04:49.575Z,25.75
2022-12-01T17:07:16.283Z,17.85
2022-12-01T17:09:42.789Z,18.40
2022-12-01T17:12:09.942Z,20.98
2022-12-01T17:14:36.522Z,17.63
2022-12-01T17:17:03.632Z,21.90
2022-12-01T17:19:30.116Z,21.60
2022-12-01T17:21:56.926Z,13.18
2022-12-01T17:24:23.488Z,21.75
2022-12-01T17:26:49.956Z,20.65
2022-12-01T17:29:16.438Z,15.40
2022-12-01T17:31:43.063Z,15.43
2022-12-01T17:34:09.835Z,18.10
2022-12-01T17:36:36.596Z,16.67
2022-12-01T17:39:03.153Z,21.40
2022-12-01T17:41:35.449Z,16.90
2022-12-01T17:44:04.052Z,19.15
2022-12-01T17:46:31.215Z,19.30
2022-12-01T17:48:58.566Z,18.30
2022-12-01T17:51:25.065Z,19.92
2022-12-01T17:53:53.704Z,15.70
2022-12-01T17:56:20.225Z,18.10
2022-12-01T17:58:50.303Z,18.70
2022-12-01T18:01:18.840Z,14.65
2022-12-01T18:03:46.367Z,17.15
2022-12-01T18:06:13.549Z,17.77
2022-12-01T18:08:40.961Z,19.95
2022-12-01T18:11:10.318Z,18.60
2022-12-01T18:13:42.193Z,11.80
2022-12-01T18:16:13.936Z,17.02
2022-12-01T18:18:40.564Z,11.65
2022-12-01T18:21:13.210Z,17.42
2022-12-01T18:23:40.095Z,16.42
2022-12-01T18:26:15.485Z,23.85
2022-12-01T18:28:43.511Z,21.92
2022-12-01T18:31:12.940Z,21.92
2022-12-01T18:33:41.407Z,21.33
2022-12-01T18:36:20.141Z,20.48
2022-12-01T18:38:47.433Z,19.85
2022-12-01T18:41:14.808Z,20.52
2022-12-01T18:43:41.791Z,15.43
2022-12-01T18:46:08.929Z,24.52
2022-12-01T18:48:35.504Z,23.85
2022-12-01T18:51:03.845Z,22.15
2022-12-01T18:53:30.762Z,23.35
2022-12-01T18:55:57.263Z,24.02
2022-12-01T18:58:23.748Z,17.08
2022-12-01T19:00:50.334Z,22.75
2022-12-01T19:03:16.914Z,20.27
2022-12-01T19:05:43.417Z,31.77
2022-12-01T19:08:09.996Z,21.95
2022-12-01T19:10:36.736Z,17.70
2022-12-01T19:13:03.908Z,19.70
2022-12-01T19:15:30.671Z,26.95
2022-12-01T19:17:57.404Z,17.00
2022-12-01T19:20:23.915Z,23.77
2022-12-01T19:22:50.526Z,21.73
2022-12-01T19:25:17.160Z,28.80
2022-12-01T19:27:43.624Z,19.83
2022-12-01T19:30:10.496Z,20.33
2022-12-01T19:32:37.108Z,20.90
2022-12-01T19:35:04.549Z,24.25
2022-12-01T19:37:32.196Z,20.23
2022-12-01T19:39:58.961Z,15.95
2022-12-01T19:42:25.554Z,18.58
2022-12-01T19:44:52.240Z,22.98
2022-12-01T19:47:22.148Z,13.73
2022-12-01T19:49:49.183Z,20.48
2022-12-01T19:52:16.007Z,18.50
2022-12-01T19:54:42.692Z,21.73
2022-12-01T19:57:09.191Z,22.27
2022-12-01T19:59:35.720Z,22.33
2022-12-01T20:02:02.227Z,20.33
2022-12-01T20:04:28.884Z,19.55
2022-12-01T20:06:55.407Z,15.38
2022-12-01T20:09:22.575Z,22.98
2022-12-01T20:11:49.107Z,23.90
2022-12-01T20:14:15.844Z,24.55
2022-12-01T20:16:42.460Z,17.60
2022-12-01T20:19:10.275Z,18.95
2022-12-01T20:21:42.109Z,19.70
2022-12-01T20:24:12.528Z,19.17
2022-12-01T20:26:45.802Z,23.08
2022-12-01T20:29:15.805Z,19.52
2022-12-01T20:31:43.369Z,18.85
2022-12-01T20:34:17.094Z,19.40
2022-12-01T20:36:44.336Z,14.40
2022-12-01T20:39:11.934Z,15.07
2022-12-01T20:41:40.094Z,14.57
2022-12-01T20:44:07.984Z,14.20
2022-12-01T20:46:36.393Z,14.77
2022-12-01T20:49:04.126Z,14.23
2022-12-01T20:51:33.566Z,13.38
2022-12-01T20:54:26.776Z,9.50
2022-12-01T20:56:48.127Z,13.90
2022-12-01T20:59:14.688Z,12.55
2022-12-01T21:01:41.271Z,14.13
2022-12-01T21:04:08.551Z,11.73
2022-12-01T21:06:35.281Z,12.13
2022-12-01T21:09:03.039Z,14.52
2022-12-01T21:11:52.639Z,14.80
2022-12-01T21:14:35.218Z,14.00
2022-12-01T21:17:12.381Z,9.00
2022-12-01T21:20:25.490Z,11.20
2022-12-01T21:22:53.462Z,10.20
2022-12-01T21:25:23.358Z,12.32
2022-12-01T21:27:50.416Z,10.10
2022-12-01T21:30:18.766Z,13.07
2022-12-01T21:32:46.873Z,12.60
2022-12-01T21:35:18.204Z,13.07
2022-12-01T21:37:45.650Z,8.93
2022-12-01T21:40:20.002Z,9.77
2022-12-01T21:42:47.028Z,10.98
2022-12-01T21:45:27.444Z,11.18
2022-12-01T21:47:58.982Z,11.50
2022-12-01T21:50:27.167Z,11.57
2022-12-01T21:52:53.715Z,9.75
2022-12-01T21:55:20.148Z,8.13
2022-12-01T21:57:47.836Z,10.35
2022-12-01T22:00:33.726Z,9.68
2022-12-01T22:03:00.279Z,10.95
2022-12-01T22:05:40.336Z,10.27
2022-12-01T22:08:23.136Z,10.45
2022-12-01T22:11:09.580Z,6.35
2022-12-01T22:13:39.728Z,12.02
2022-12-01T22:16:27.695Z,10.60
2022-12-01T22:18:56.738Z,13.30
2022-12-01T22:21:23.456Z,13.57
2022-12-01T22:23:57.150Z,12.38
2022-12-01T22:26:25.061Z,11.80
2022-12-01T22:28:56.194Z,10.43
2022-12-01T22:31:23.048Z,10.03
2022-12-01T22:34:02.869Z,13.20
2022-12-01T22:36:31.893Z,12.45
2022-12-01T22:38:58.790Z,10.93
2022-12-01T22:41:26.815Z,10.98
2022-12-01T22:44:01.985Z,14.55
2022-12-01T22:46:32.742Z,12.30
2022-12-01T22:49:17.721Z,11.57
2022-12-01T22:51:48.382Z,10.68
2022-12-01T22:54:14.837Z,14.00
2022-12-01T22:56:44.313Z,11.57
2022-12-01T22:59:38.891Z,11.35
2022-12-01T23:02:25.938Z,13.73
2022-12-01T23:04:59.435Z,11.50
2022-12-01T23:07:30.213Z,9.52
2022-12-01T23:10:01.232Z,9.02
2022-12-01T23:12:30.904Z,14.45
2022-12-01T23:15:14.805Z,12.27
2022-12-01T23:17:41.434Z,8.27
2022-12-01T23:20:10.743Z,13.57
2022-12-01T23:22:38.160Z,9.23
2022-12-01T23:25:16.804Z,9.20
2022-12-01T23:27:45.011Z,15.55
2022-12-01T23:30:13.046Z,15.02
2022-12-01T23:32:39.752Z,13.75
2022-12-01T23:35:13.501Z,11.15
2022-12-01T23:37:42.377Z,12.98
2022-12-01T23:40:35.341Z,11.18
2022-12-01T23:43:23.772Z,10.90
2022-12-01T23:46:00.868Z,10.63
2022-12-01T23:48:33.974Z,12.73
2022-12-01T23:51:00.783Z,16.45
2022-12-01T23:53:30.054Z,11.73
2022-12-01T23:56:04.843Z,13.23
2022-12-01T23:58:31.339Z,10.75
